createdAt,value
2022-09-07T00:01:24.365Z,2.60
2022-09-07T00:03:56.504Z,3.60
2022-09-07T00:06:26.483Z,6.57
2022-09-07T00:08:56.805Z,2.17
2022-09-07T00:11:25.284Z,2.43
2022-09-07T00:13:53.787Z,3.57
2022-09-07T00:16:24.216Z,4.50
2022-09-07T00:18:54.501Z,4.30
2022-09-07T00:21:24.445Z,2.17
2022-09-07T00:23:53.467Z,4.70
2022-09-07T00:26:25.799Z,2.83
2022-09-07T00:28:57.900Z,2.90
2022-09-07T00:31:26.946Z,2.27
2022-09-07T00:33:58.694Z,2.93
2022-09-07T00:36:27.454Z,3.60
2022-09-07T00:38:56.148Z,3.63
2022-09-07T00:45:14.161Z,52.93
2022-09-07T00:47:49.917Z,39.20
2022-09-07T00:50:23.738Z,33.27
2022-09-07T00:52:57.256Z,23.60
2022-09-07T00:55:27.857Z,9.23
2022-09-07T00:57:58.245Z,5.67
2022-09-07T01:00:28.498Z,2.10
2022-09-07T01:03:00.358Z,5.03
2022-09-07T01:05:37.447Z,4.80
2022-09-07T01:08:06.830Z,3.33
2022-09-07T01:10:37.877Z,2.63
2022-09-07T01:13:07.194Z,7.13
2022-09-07T01:15:53.361Z,4.77
2022-09-07T01:18:29.040Z,3.53
2022-09-07T01:21:25.223Z,3.07
2022-09-07T01:24:24.875Z,4.30
2022-09-07T01:27:22.420Z,5.83
2022-09-07T01:30:00.814Z,3.33
2022-09-07T01:32:41.173Z,2.60
2022-09-07T01:35:16.850Z,2.90
2022-09-07T01:37:57.172Z,3.73
2022-09-07T01:44:09.986Z,2.77
2022-09-07T01:46:44.848Z,3.03
2022-09-07T01:49:19.659Z,2.50
2022-09-07T01:51:54.559Z,3.17
2022-09-07T01:54:27.951Z,2.37
2022-09-07T01:57:03.609Z,3.00
2022-09-07T01:59:35.725Z,3.60
2022-09-07T02:02:10.640Z,5.03
2022-09-07T02:04:44.718Z,4.07
2022-09-07T02:07:20.694Z,6.43
2022-09-07T02:09:53.778Z,5.47
2022-09-07T02:12:27.713Z,2.93
2022-09-07T02:15:01.506Z,6.17
2022-09-07T02:17:36.110Z,4.80
2022-09-07T02:20:11.048Z,2.73
2022-09-07T02:22:43.324Z,5.30
2022-09-07T02:25:18.533Z,2.97
2022-09-07T02:27:49.503Z,2.97
2022-09-07T02:30:18.294Z,2.73
2022-09-07T02:32:48.270Z,4.83
2022-09-07T02:35:17.108Z,4.90
2022-09-07T02:37:46.626Z,4.37
2022-09-07T02:40:15.483Z,4.47
2022-09-07T02:42:45.356Z,3.37
2022-09-07T02:45:15.453Z,5.20
2022-09-07T02:47:59.925Z,3.80
2022-09-07T02:50:42.924Z,7.40
2022-09-07T02:53:26.882Z,3.83
2022-09-07T02:56:10.024Z,4.47
2022-09-07T02:58:47.983Z,4.47
2022-09-07T03:01:29.168Z,3.67
2022-09-07T03:04:08.096Z,2.07
2022-09-07T03:06:41.071Z,2.43
2022-09-07T03:09:14.709Z,5.17
2022-09-07T03:11:43.773Z,4.40
2022-09-07T03:14:18.194Z,3.43
2022-09-07T03:16:48.333Z,6.37
2022-09-07T03:19:18.352Z,3.80
2022-09-07T03:21:47.061Z,3.00
2022-09-07T03:24:15.532Z,3.90
2022-09-07T03:26:47.006Z,2.13
2022-09-07T03:29:15.936Z,3.00
2022-09-07T03:31:44.469Z,2.50
2022-09-07T03:34:13.452Z,4.20
2022-09-07T03:36:43.386Z,3.03
2022-09-07T03:39:14.153Z,3.73
2022-09-07T03:41:42.757Z,3.83
2022-09-07T03:44:12.035Z,2.90
2022-09-07T03:46:40.542Z,2.23
2022-09-07T03:49:09.022Z,3.50
2022-09-07T03:51:37.510Z,3.20
2022-09-07T03:54:07.724Z,2.57
2022-09-07T03:56:36.492Z,4.03
2022-09-07T03:59:04.999Z,3.83
2022-09-07T04:01:33.722Z,1.97
2022-09-07T04:04:03.096Z,2.93
2022-09-07T04:06:32.469Z,3.57
2022-09-07T04:09:03.767Z,3.83
2022-09-07T04:11:34.311Z,4.13
2022-09-07T04:16:49.059Z,2.20
2022-09-07T04:19:17.924Z,4.53
2022-09-07T04:21:47.506Z,4.03
2022-09-07T04:24:26.384Z,5.13
2022-09-07T04:26:56.806Z,4.77
2022-09-07T04:29:25.332Z,2.70
2022-09-07T04:31:57.448Z,1.83
2022-09-07T04:34:26.018Z,2.30
2022-09-07T04:36:54.574Z,2.13
2022-09-07T04:39:23.448Z,3.03
2022-09-07T04:41:51.917Z,4.13
2022-09-07T04:44:21.838Z,6.27
2022-09-07T04:46:50.321Z,2.53
2022-09-07T04:49:19.396Z,4.83
2022-09-07T04:51:49.535Z,2.50
2022-09-07T04:54:18.001Z,3.67
2022-09-07T04:56:46.534Z,4.37
2022-09-07T04:59:15.044Z,8.53
2022-09-07T05:01:45.158Z,2.80
2022-09-07T05:04:13.722Z,2.17
2022-09-07T05:06:42.299Z,7.13
2022-09-07T05:09:12.234Z,3.87
2022-09-07T05:11:40.746Z,3.77
2022-09-07T05:14:09.273Z,2.47
2022-09-07T05:16:37.838Z,5.60
2022-09-07T05:19:07.897Z,5.83
2022-09-07T05:21:36.935Z,4.97
2022-09-07T05:24:07.038Z,4.67
2022-09-07T05:26:37.635Z,6.47
2022-09-07T05:35:38.061Z,5.57
2022-09-07T05:39:10.424Z,4.87
2022-09-07T05:41:40.019Z,3.83
2022-09-07T05:47:51.053Z,3.20
2022-09-07T05:50:19.712Z,5.13
2022-09-07T05:52:49.712Z,4.67
2022-09-07T05:55:29.547Z,3.43
2022-09-07T05:57:59.152Z,7.53
2022-09-07T06:00:27.936Z,5.07
2022-09-07T06:02:57.384Z,2.37
2022-09-07T06:05:26.291Z,2.47
2022-09-07T06:07:56.644Z,3.17
2022-09-07T06:13:12.016Z,4.53
2022-09-07T06:15:40.852Z,5.67
2022-09-07T06:18:09.746Z,2.63
2022-09-07T06:20:38.302Z,6.00
2022-09-07T06:23:08.771Z,4.67
2022-09-07T06:25:37.303Z,4.20
2022-09-07T06:28:05.916Z,3.90
2022-09-07T06:30:34.452Z,4.03
2022-09-07T06:33:03.042Z,3.23
2022-09-07T06:35:31.577Z,3.73
2022-09-07T06:38:00.142Z,3.43
2022-09-07T06:40:30.142Z,6.67
2022-09-07T06:42:58.966Z,4.60
2022-09-07T06:45:28.368Z,4.10
2022-09-07T06:47:57.051Z,8.27
2022-09-07T06:50:28.045Z,4.80
2022-09-07T06:55:47.174Z,5.47
2022-09-07T06:58:15.862Z,5.27
2022-09-07T07:00:44.618Z,9.83
2022-09-07T07:03:13.304Z,4.30
2022-09-07T07:05:41.986Z,4.47
2022-09-07T07:08:10.538Z,5.10
2022-09-07T07:10:40.454Z,3.50
2022-09-07T07:13:10.485Z,5.83
2022-09-07T07:15:39.051Z,2.77
2022-09-07T07:18:20.325Z,4.73
2022-09-07T07:20:49.669Z,5.60
2022-09-07T07:23:18.347Z,5.07
2022-09-07T07:25:46.888Z,9.60
2022-09-07T07:31:11.307Z,6.43
2022-09-07T07:33:41.330Z,5.47
2022-09-07T07:36:11.796Z,5.67
2022-09-07T07:44:17.726Z,6.47
2022-09-07T07:46:49.196Z,4.73
2022-09-07T07:49:17.813Z,4.90
2022-09-07T07:54:37.129Z,5.00
2022-09-07T07:57:06.099Z,6.17
2022-09-07T07:59:37.194Z,9.10
2022-09-07T08:02:06.824Z,7.13
2022-09-07T08:04:36.307Z,6.67
2022-09-07T08:07:10.127Z,6.83
2022-09-07T08:09:41.520Z,4.83
2022-09-07T08:12:11.591Z,6.63
2022-09-07T08:14:42.415Z,6.90
2022-09-07T08:17:11.894Z,9.33
2022-09-07T08:19:40.912Z,7.63
2022-09-07T08:22:10.860Z,5.83
2022-09-07T08:24:39.443Z,4.67
2022-09-07T08:27:08.002Z,5.63
2022-09-07T08:29:37.003Z,5.80
2022-09-07T08:32:08.074Z,6.67
2022-09-07T08:34:39.390Z,8.97
2022-09-07T08:37:08.172Z,7.40
2022-09-07T08:39:37.370Z,4.70
2022-09-07T08:42:38.948Z,8.10
2022-09-07T08:45:12.795Z,4.87
2022-09-07T08:47:47.374Z,6.30
2022-09-07T08:50:22.170Z,7.67
2022-09-07T08:52:53.511Z,4.90
2022-09-07T08:55:28.306Z,4.90
2022-09-07T08:58:04.513Z,4.53
2022-09-07T09:00:33.199Z,4.47
2022-09-07T09:06:01.837Z,4.10
2022-09-07T09:08:46.823Z,5.83
2022-09-07T09:11:24.454Z,6.63
2022-09-07T09:14:01.295Z,6.77
2022-09-07T09:16:35.701Z,5.10
2022-09-07T09:19:22.218Z,6.93
2022-09-07T09:21:50.783Z,7.17
2022-09-07T09:24:21.297Z,6.70
2022-09-07T09:26:54.305Z,5.97
2022-09-07T09:29:24.727Z,4.03
2022-09-07T09:31:53.916Z,6.03
2022-09-07T09:34:27.205Z,6.97
2022-09-07T09:36:58.287Z,6.40
2022-09-07T09:39:29.641Z,7.80
2022-09-07T09:42:00.868Z,8.83
2022-09-07T09:44:34.712Z,3.97
2022-09-07T09:49:55.070Z,6.40
2022-09-07T09:52:30.215Z,5.17
2022-09-07T09:55:17.244Z,4.43
2022-09-07T10:06:24.468Z,5.77
2022-09-07T10:08:58.604Z,4.63
2022-09-07T10:14:38.846Z,6.23
2022-09-07T10:17:23.589Z,3.63
2022-09-07T10:19:52.576Z,4.20
2022-09-07T10:22:35.955Z,8.43
2022-09-07T10:25:06.450Z,5.23
2022-09-07T10:27:37.731Z,5.97
2022-09-07T10:30:17.766Z,4.50
2022-09-07T10:32:57.376Z,4.20
2022-09-07T10:35:30.190Z,7.97
2022-09-07T10:38:15.084Z,5.83
2022-09-07T10:40:46.377Z,4.13
2022-09-07T10:43:43.627Z,4.33
2022-09-07T10:49:28.175Z,5.43
2022-09-07T10:52:16.108Z,4.73
2022-09-07T10:54:52.564Z,5.20
2022-09-07T10:57:39.622Z,5.03
2022-09-07T11:00:13.084Z,4.73
2022-09-07T11:03:30.915Z,4.17
2022-09-07T11:06:16.723Z,4.27
2022-09-07T11:09:17.343Z,5.00
2022-09-07T11:12:04.769Z,7.63
2022-09-07T11:14:40.430Z,4.30
2022-09-07T11:17:17.001Z,4.87
2022-09-07T11:19:52.483Z,4.20
2022-09-07T11:22:30.367Z,4.63
2022-09-07T11:28:00.525Z,6.57
2022-09-07T11:30:33.113Z,9.67
2022-09-07T11:33:11.606Z,3.50
2022-09-07T11:35:50.002Z,6.63
2022-09-07T11:38:26.878Z,4.20
2022-09-07T11:41:10.646Z,5.83
2022-09-07T11:43:46.745Z,6.47
2022-09-07T11:46:18.826Z,5.30
2022-09-07T11:48:56.651Z,5.70
2022-09-07T11:51:37.258Z,3.80
2022-09-07T11:54:19.551Z,4.23
2022-09-07T11:56:54.279Z,3.43
2022-09-07T11:59:40.807Z,3.13
2022-09-07T12:02:58.838Z,5.30
2022-09-07T12:05:44.378Z,4.67
2022-09-07T12:08:38.880Z,2.83
2022-09-07T12:11:34.613Z,6.20
2022-09-07T12:14:23.656Z,4.03
2022-09-07T12:17:19.453Z,4.10
2022-09-07T12:20:05.174Z,6.20
2022-09-07T12:22:33.814Z,5.07
2022-09-07T12:25:09.918Z,4.13
2022-09-07T12:27:41.688Z,4.87
2022-09-07T12:30:49.529Z,3.37
2022-09-07T12:33:27.754Z,3.27
2022-09-07T12:35:59.196Z,4.37
2022-09-07T12:39:15.564Z,8.50
2022-09-07T12:42:31.442Z,4.63
2022-09-07T12:44:39.580Z,7.23
2022-09-07T12:47:28.144Z,3.97
2022-09-07T12:50:29.786Z,4.30
2022-09-07T12:53:29.255Z,4.30
2022-09-07T12:56:27.723Z,4.83
2022-09-07T12:59:20.204Z,5.63
2022-09-07T13:01:58.376Z,5.53
2022-09-07T13:04:50.521Z,3.23
2022-09-07T13:07:46.424Z,6.83
2022-09-07T13:10:28.362Z,3.37
2022-09-07T13:13:03.175Z,3.50
2022-09-07T13:15:40.748Z,3.57
2022-09-07T13:18:15.522Z,3.43
2022-09-07T13:20:44.073Z,6.60
2022-09-07T13:23:24.617Z,4.10
2022-09-07T13:26:00.315Z,4.00
2022-09-07T13:28:56.301Z,8.77
2022-09-07T13:31:47.383Z,5.17
2022-09-07T13:34:54.552Z,5.07
2022-09-07T13:37:28.353Z,3.33
2022-09-07T13:40:00.071Z,4.67
2022-09-07T13:42:32.908Z,5.07
2022-09-07T13:45:02.999Z,3.30
2022-09-07T13:47:43.085Z,6.33
2022-09-07T13:50:26.368Z,4.63
2022-09-07T13:53:19.569Z,4.93
2022-09-07T13:55:58.852Z,3.67
2022-09-07T13:58:31.204Z,3.87
2022-09-07T14:01:02.649Z,4.03
2022-09-07T14:03:39.656Z,3.53
2022-09-07T14:06:31.650Z,4.13
2022-09-07T14:09:03.245Z,5.43
2022-09-07T14:11:41.626Z,3.07
2022-09-07T14:14:24.260Z,2.97
2022-09-07T14:17:00.333Z,4.97
2022-09-07T14:19:37.577Z,4.37
2022-09-07T14:22:09.781Z,3.10
2022-09-07T14:24:40.897Z,4.80
2022-09-07T14:27:22.176Z,5.00
2022-09-07T14:29:50.886Z,6.67
2022-09-07T14:32:22.024Z,3.67
2022-09-07T14:34:51.700Z,5.93
2022-09-07T14:37:23.653Z,5.00
2022-09-07T14:39:53.093Z,3.43
2022-09-07T14:42:25.756Z,3.63
2022-09-07T14:45:18.799Z,4.77
2022-09-07T14:47:48.789Z,6.03
2022-09-07T14:50:22.547Z,3.40
2022-09-07T14:55:44.020Z,4.37
2022-09-07T14:58:24.161Z,4.77
2022-09-07T15:03:59.798Z,4.07
2022-09-07T15:09:31.060Z,4.50
2022-09-07T15:12:18.364Z,7.90
2022-09-07T15:14:49.017Z,5.00
2022-09-07T15:20:35.300Z,7.53
2022-09-07T15:23:05.428Z,9.17
2022-09-07T15:25:34.460Z,7.23
2022-09-07T15:28:03.655Z,8.57
2022-09-07T15:30:36.786Z,7.17
2022-09-07T15:33:06.992Z,7.87
2022-09-07T15:35:35.683Z,10.23
2022-09-07T15:38:05.412Z,7.33
2022-09-07T15:41:03.876Z,8.63
2022-09-07T15:43:31.934Z,16.53
2022-09-07T15:46:03.683Z,8.47
2022-09-07T15:48:32.785Z,8.47
2022-09-07T15:52:04.532Z,10.30
2022-09-07T15:56:44.450Z,9.60
2022-09-07T15:59:31.844Z,10.50
2022-09-07T16:02:02.649Z,7.30
2022-09-07T16:04:31.709Z,6.07
2022-09-07T16:07:01.561Z,5.57
2022-09-07T16:09:30.407Z,5.07
2022-09-07T16:13:00.163Z,5.60
2022-09-07T16:14:47.548Z,8.83
2022-09-07T16:20:06.647Z,7.27
2022-09-07T16:25:25.216Z,6.37
2022-09-07T16:27:53.807Z,5.33
2022-09-07T16:30:22.695Z,8.37
2022-09-07T16:32:53.001Z,4.53
2022-09-07T16:35:22.044Z,5.63
2022-09-07T16:40:43.099Z,6.23
2022-09-07T16:43:11.677Z,9.53
2022-09-07T16:48:31.568Z,10.20
2022-09-07T16:51:02.647Z,6.53
2022-09-07T16:53:32.863Z,6.23
2022-09-07T16:56:05.954Z,5.33
2022-09-07T16:58:37.227Z,11.90
2022-09-07T17:01:06.948Z,6.43
2022-09-07T17:03:37.877Z,5.20
2022-09-07T17:06:09.386Z,5.57
2022-09-07T17:08:41.895Z,7.07
2022-09-07T17:11:12.696Z,7.50
2022-09-07T17:13:42.609Z,15.23
2022-09-07T17:16:13.665Z,12.00
2022-09-07T17:21:35.149Z,6.20
2022-09-07T17:24:04.974Z,5.57
2022-09-07T17:26:34.278Z,9.37
2022-09-07T17:29:02.867Z,4.03
2022-09-07T17:34:28.482Z,6.17
2022-09-07T17:36:57.191Z,7.63
2022-09-07T17:39:25.707Z,7.83
2022-09-07T17:41:54.757Z,4.93
2022-09-07T17:44:24.006Z,7.23
2022-09-07T17:46:53.078Z,6.17
2022-09-07T17:49:21.640Z,4.90
2022-09-07T17:51:51.781Z,5.93
2022-09-07T17:54:20.366Z,6.30
2022-09-07T17:56:52.097Z,6.50
2022-09-07T18:02:10.819Z,4.03
2022-09-07T18:04:39.567Z,6.40
2022-09-07T18:07:09.788Z,8.00
2022-09-07T18:09:38.510Z,4.87
2022-09-07T18:12:07.518Z,4.03
2022-09-07T18:14:36.033Z,7.10
2022-09-07T18:17:06.153Z,5.87
2022-09-07T18:19:36.653Z,5.07
2022-09-07T18:22:09.585Z,6.67
2022-09-07T18:24:38.119Z,8.63
2022-09-07T18:27:08.356Z,8.63
2022-09-07T18:29:37.629Z,12.07
2022-09-07T18:32:09.990Z,10.50
2022-09-07T18:34:41.385Z,10.50
2022-09-07T18:37:13.464Z,5.50
2022-09-07T18:39:42.078Z,6.83
2022-09-07T18:42:11.452Z,9.10
2022-09-07T18:47:29.667Z,8.23
2022-09-07T18:49:59.012Z,8.70
2022-09-07T18:55:19.393Z,7.77
2022-09-07T18:57:48.178Z,10.00
2022-09-07T19:00:17.964Z,11.63
2022-09-07T19:02:51.186Z,13.50
2022-09-07T19:08:15.857Z,10.17
2022-09-07T19:10:44.609Z,8.33
2022-09-07T19:13:14.090Z,384.57
2022-09-07T19:15:44.833Z,110.83
2022-09-07T19:18:13.882Z,134.97
2022-09-07T19:20:42.663Z,201.50
2022-09-07T19:23:11.329Z,170.87
2022-09-07T19:25:44.198Z,94.63
2022-09-07T19:28:12.740Z,159.27
2022-09-07T19:30:41.370Z,182.30
2022-09-07T19:33:12.359Z,64.83
2022-09-07T19:35:41.109Z,16.87
2022-09-07T19:38:09.750Z,7.33
2022-09-07T19:40:38.488Z,177.67
2022-09-07T19:43:08.773Z,128.57
2022-09-07T19:45:39.899Z,150.40
2022-09-07T19:48:08.720Z,29.50
2022-09-07T19:50:37.473Z,31.67
2022-09-07T19:53:07.006Z,141.33
2022-09-07T19:55:35.552Z,44.47
2022-09-07T19:58:04.048Z,12.17
2022-09-07T20:00:34.409Z,9.80
2022-09-07T20:03:03.660Z,7.10
2022-09-07T20:05:32.628Z,10.23
2022-09-07T20:08:01.214Z,9.10
2022-09-07T20:10:29.744Z,6.90
2022-09-07T20:12:58.678Z,10.47
2022-09-07T20:15:27.849Z,119.13
2022-09-07T20:17:57.848Z,166.83
2022-09-07T20:20:26.560Z,41.67
2022-09-07T20:22:55.094Z,41.73
2022-09-07T20:25:23.725Z,136.77
2022-09-07T20:27:52.260Z,123.77
2022-09-07T20:30:24.497Z,28.53
2022-09-07T20:32:53.015Z,22.50
2022-09-07T20:35:23.114Z,18.93
2022-09-07T20:37:51.799Z,22.93
2022-09-07T20:40:20.421Z,22.57
2022-09-07T20:42:48.969Z,30.93
2022-09-07T20:45:17.655Z,20.77
2022-09-07T20:47:46.209Z,29.27
2022-09-07T20:50:14.825Z,51.57
2022-09-07T20:52:44.892Z,27.53
2022-09-07T20:55:13.532Z,22.77
2022-09-07T20:57:42.056Z,17.33
2022-09-07T21:00:11.144Z,13.17
2022-09-07T21:02:39.806Z,13.63
2022-09-07T21:05:08.730Z,9.83
2022-09-07T21:07:42.542Z,15.93
2022-09-07T21:10:12.644Z,24.47
2022-09-07T21:12:44.238Z,12.70
2022-09-07T21:15:12.977Z,14.37
2022-09-07T21:17:41.646Z,46.40
2022-09-07T21:20:10.816Z,26.83
2022-09-07T21:22:39.584Z,15.20
2022-09-07T21:25:10.919Z,14.40
2022-09-07T21:27:40.965Z,27.37
2022-09-07T21:30:10.552Z,27.90
2022-09-07T21:32:40.673Z,36.23
2022-09-07T21:35:10.998Z,23.60
2022-09-07T21:37:45.173Z,24.73
2022-09-07T21:40:14.190Z,32.93
2022-09-07T21:42:44.257Z,12.90
2022-09-07T21:45:12.860Z,50.50
2022-09-07T21:47:41.485Z,25.77
2022-09-07T21:50:10.137Z,23.53
2022-09-07T21:52:39.026Z,23.07
2022-09-07T21:55:08.834Z,21.53
2022-09-07T21:57:37.429Z,30.20
2022-09-07T22:00:09.576Z,30.40
2022-09-07T22:02:38.168Z,115.90
2022-09-07T22:05:07.185Z,632.20
2022-09-07T22:07:35.975Z,560.93
2022-09-07T22:10:05.050Z,697.10
2022-09-07T22:12:33.636Z,71.20
2022-09-07T22:15:02.133Z,36.10
2022-09-07T22:17:32.474Z,43.27
2022-09-07T22:20:01.009Z,28.47
2022-09-07T22:22:29.531Z,102.67
2022-09-07T22:24:58.136Z,643.73
2022-09-07T22:31:11.317Z,608.13
2022-09-07T22:33:42.136Z,95.40
2022-09-07T22:36:13.020Z,76.13
2022-09-07T22:38:41.902Z,68.20
2022-09-07T22:41:11.479Z,31.83
2022-09-07T22:43:40.171Z,56.10
2022-09-07T22:46:08.744Z,38.37
2022-09-07T22:48:37.306Z,21.70
2022-09-07T22:51:09.055Z,14.80
2022-09-07T22:53:40.620Z,22.93
2022-09-07T22:56:11.593Z,22.07
2022-09-07T22:58:40.399Z,32.20
2022-09-07T23:01:08.949Z,23.43
2022-09-07T23:03:37.795Z,19.93
2022-09-07T23:06:08.035Z,19.80
2022-09-07T23:08:36.631Z,33.93
2022-09-07T23:11:06.176Z,31.70
2022-09-07T23:13:34.876Z,21.13
2022-09-07T23:16:08.245Z,20.93
2022-09-07T23:18:37.317Z,21.67
2022-09-07T23:21:05.823Z,20.77
2022-09-07T23:23:35.837Z,17.23
2022-09-07T23:26:05.484Z,20.23
2022-09-07T23:28:34.743Z,24.33
2022-09-07T23:31:03.301Z,36.40
2022-09-07T23:33:32.273Z,28.17
2022-09-07T23:36:02.823Z,39.03
2022-09-07T23:38:31.754Z,26.53
2022-09-07T23:41:02.299Z,19.07
2022-09-07T23:43:31.582Z,29.30
2022-09-07T23:46:01.009Z,26.20
2022-09-07T23:48:29.762Z,31.53
2022-09-07T23:50:58.616Z,46.97
2022-09-07T23:53:27.218Z,18.13
2022-09-07T23:55:55.865Z,26.70
2022-09-07T23:58:25.850Z,31.00
